Time;durP1;ratioP1;P1;durP2;ratioP2;P2;SDS_P1;SDS_P2;PMS_P1;PMS_P2;Temp;Humidity;BMP_temperature;BMP_pressure;BME280_temperature;BME280_humidity;BME280_pressure;Samples;Min_cycle;Max_cycle;Signal;HPM_P1;HPM_P2
2022/03/02 00:00:28;;;;;;;12.93;5.95;;;15.80;71.20;;;;;;2020249;28;20252;-76
2022/03/02 00:01:26;;;;;;;7.90;5.53;;;15.90;71.20;;;;;;2019542;28;20590;-76
2022/03/02 00:02:25;;;;;;;8.70;6.03;;;15.80;70.90;;;;;;2019607;28;20252;-76
2022/03/02 00:03:23;;;;;;;12.27;5.70;;;15.80;71.00;;;;;;2020291;28;20172;-76
2022/03/02 00:04:22;;;;;;;8.20;5.47;;;15.80;71.10;;;;;;2020242;28;20221;-76
2022/03/02 00:05:21;;;;;;;7.90;5.45;;;15.80;71.10;;;;;;2020395;28;20156;-76
2022/03/02 00:06:20;;;;;;;7.37;5.27;;;15.80;71.00;;;;;;2020440;28;20514;-75
2022/03/02 00:07:18;;;;;;;12.97;5.63;;;15.80;71.00;;;;;;2020397;28;20635;-76
2022/03/02 00:08:17;;;;;;;9.60;5.63;;;15.80;71.20;;;;;;2020212;28;20172;-75
2022/03/02 00:09:17;;;;;;;9.27;5.43;;;15.80;71.10;;;;;;2020414;28;20172;-76
2022/03/02 00:10:16;;;;;;;8.98;5.30;;;15.80;71.10;;;;;;2020277;28;20164;-76
2022/03/02 00:11:16;;;;;;;12.13;5.60;;;15.80;71.20;;;;;;2019772;28;20263;-76
2022/03/02 00:12:15;;;;;;;9.77;5.40;;;15.80;71.00;;;;;;2019581;28;20600;-76
2022/03/02 00:13:13;;;;;;;13.93;6.10;;;15.80;71.20;;;;;;2019511;28;20207;-75
2022/03/02 00:14:13;;;;;;;9.00;4.87;;;15.80;71.20;;;;;;2019438;28;20528;-75
2022/03/02 00:15:12;;;;;;;12.32;5.95;;;15.90;71.20;;;;;;2019040;28;20210;-75
2022/03/02 00:16:12;;;;;;;10.90;5.27;;;15.80;71.60;;;;;;2019704;28;20627;-76
2022/03/02 00:17:10;;;;;;;8.95;5.38;;;15.80;71.40;;;;;;2019675;28;20172;-76
2022/03/02 00:18:09;;;;;;;9.03;5.50;;;15.80;71.40;;;;;;2020019;28;20533;-76
2022/03/02 00:19:08;;;;;;;9.57;5.93;;;15.80;71.40;;;;;;2020113;28;20183;-76
2022/03/02 00:20:08;;;;;;;9.02;5.55;;;15.70;71.50;;;;;;2020141;28;20206;-77
2022/03/02 00:21:06;;;;;;;8.45;5.80;;;15.80;71.50;;;;;;2020180;28;20190;-76
2022/03/02 00:22:05;;;;;;;11.20;6.10;;;15.70;71.50;;;;;;2020293;28;20175;-77
2022/03/02 00:23:04;;;;;;;10.00;6.17;;;15.80;71.50;;;;;;2020290;28;20203;-76
2022/03/02 00:24:04;;;;;;;8.50;5.97;;;15.80;71.70;;;;;;2020231;28;20408;-77
2022/03/02 00:25:03;;;;;;;11.88;6.25;;;15.70;71.60;;;;;;2020280;28;20164;-77
2022/03/02 00:26:01;;;;;;;8.32;5.20;;;15.80;72.10;;;;;;2019762;28;20635;-77
2022/03/02 00:27:00;;;;;;;11.83;6.33;;;15.80;71.60;;;;;;2019821;28;20217;-77
2022/03/02 00:27:59;;;;;;;7.40;5.33;;;15.80;71.70;;;;;;2020258;28;20214;-75
2022/03/02 00:28:58;;;;;;;6.80;4.70;;;15.70;71.50;;;;;;2020220;28;20186;-76
2022/03/02 00:29:56;;;;;;;8.00;5.75;;;15.70;71.70;;;;;;2020249;28;20457;-76
2022/03/02 00:30:55;;;;;;;8.23;5.40;;;15.80;71.70;;;;;;2020186;28;20184;-76
2022/03/02 00:31:54;;;;;;;8.70;5.83;;;15.80;71.70;;;;;;2021075;28;20179;-77
2022/03/02 00:32:52;;;;;;;10.17;5.50;;;15.70;71.80;;;;;;2021610;28;20706;-77
2022/03/02 00:33:52;;;;;;;7.00;5.40;;;15.80;71.80;;;;;;2021586;28;20179;-77
2022/03/02 00:34:50;;;;;;;7.72;5.10;;;15.70;71.60;;;;;;2021739;28;20168;-76
2022/03/02 00:35:49;;;;;;;8.57;5.43;;;15.70;71.80;;;;;;2021730;28;20255;-77
2022/03/02 00:36:47;;;;;;;9.77;5.17;;;15.80;72.10;;;;;;2021916;28;20196;-77
2022/03/02 00:37:46;;;;;;;8.77;5.23;;;15.70;71.60;;;;;;2021733;28;20206;-77
2022/03/02 00:38:45;;;;;;;7.90;5.20;;;15.70;71.60;;;;;;2021697;28;20168;-77
2022/03/02 00:39:44;;;;;;;9.93;5.47;;;15.70;71.80;;;;;;2021714;28;20665;-76
2022/03/02 00:40:43;;;;;;;9.20;5.60;;;15.70;71.90;;;;;;2021579;28;20646;-76
2022/03/02 00:41:42;;;;;;;10.43;5.90;;;15.70;72.00;;;;;;2021490;28;20557;-76
2022/03/02 00:42:40;;;;;;;8.37;5.57;;;15.70;72.10;;;;;;2021415;28;20350;-76
2022/03/02 00:43:39;;;;;;;9.87;5.80;;;15.70;72.10;;;;;;2021446;28;20172;-77
2022/03/02 00:44:37;;;;;;;9.57;5.93;;;15.70;72.10;;;;;;2021553;28;20168;-76
2022/03/02 00:45:37;;;;;;;9.73;5.77;;;15.70;72.80;;;;;;2021554;28;20176;-76
2022/03/02 00:46:36;;;;;;;9.23;5.50;;;15.70;72.60;;;;;;2021599;28;20186;-76
2022/03/02 00:47:35;;;;;;;12.43;5.37;;;15.70;72.70;;;;;;2021614;28;20176;-76
2022/03/02 00:48:35;;;;;;;7.13;4.47;;;15.70;73.00;;;;;;2021785;28;20176;-77
2022/03/02 00:49:34;;;;;;;13.68;6.20;;;15.70;72.50;;;;;;2021680;28;20433;-76
2022/03/02 00:50:34;;;;;;;9.70;5.30;;;15.70;72.30;;;;;;2021418;28;20176;-77
2022/03/02 00:51:32;;;;;;;9.63;5.95;;;15.70;72.60;;;;;;2021666;28;20179;-77
2022/03/02 00:52:31;;;;;;;10.90;6.43;;;15.70;72.60;;;;;;2021464;28;20609;-77
2022/03/02 00:53:30;;;;;;;7.23;5.13;;;15.70;73.00;;;;;;2020946;28;20559;-75
2022/03/02 00:54:29;;;;;;;9.07;5.77;;;15.70;72.80;;;;;;2012755;28;20451;-77
2022/03/02 00:55:28;;;;;;;7.25;5.03;;;15.70;72.70;;;;;;2020378;28;20565;-76
2022/03/02 00:56:26;;;;;;;7.23;5.37;;;15.70;72.70;;;;;;2028391;28;20232;-76
2022/03/02 00:57:25;;;;;;;9.90;6.30;;;15.70;72.60;;;;;;2028946;28;20405;-77
2022/03/02 00:58:24;;;;;;;8.20;5.77;;;15.70;72.40;;;;;;2022010;28;20619;-76
2022/03/02 00:59:22;;;;;;;8.47;5.27;;;15.70;72.50;;;;;;2021622;28;20171;-75
2022/03/02 01:00:21;;;;;;;8.17;4.97;;;15.60;72.50;;;;;;2021576;28;20183;-77
2022/03/02 01:01:19;;;;;;;9.70;5.90;;;15.70;72.60;;;;;;2021504;28;20226;-76
2022/03/02 01:02:18;;;;;;;9.40;5.80;;;15.70;72.90;;;;;;2020857;28;20184;-76
2022/03/02 01:03:16;;;;;;;8.73;5.90;;;15.80;73.40;;;;;;2020909;28;20202;-76
2022/03/02 01:04:15;;;;;;;7.80;5.53;;;15.70;73.40;;;;;;2021460;28;20179;-76
2022/03/02 01:05:14;;;;;;;8.27;5.13;;;15.70;74.10;;;;;;2020700;28;20184;-76
2022/03/02 01:06:13;;;;;;;8.90;5.15;;;15.70;74.40;;;;;;2021034;28;20250;-76
2022/03/02 01:07:12;;;;;;;8.80;5.33;;;15.70;72.90;;;;;;2021324;28;20612;-76
2022/03/02 01:08:10;;;;;;;6.57;5.27;;;15.70;73.20;;;;;;2021442;28;20176;-77
2022/03/02 01:09:09;;;;;;;8.47;5.37;;;15.70;72.90;;;;;;2020697;28;20181;-76
2022/03/02 01:10:08;;;;;;;9.80;6.13;;;15.70;73.00;;;;;;2020788;28;20262;-76
2022/03/02 01:11:07;;;;;;;11.15;5.68;;;15.70;73.40;;;;;;2021377;28;20237;-76
2022/03/02 01:12:06;;;;;;;8.10;5.60;;;15.60;73.30;;;;;;2021396;28;20212;-76
2022/03/02 01:13:04;;;;;;;9.47;6.20;;;15.70;72.90;;;;;;2021265;28;20191;-76
2022/03/02 01:14:03;;;;;;;9.60;6.00;;;15.70;73.00;;;;;;2021282;28;20212;-76
2022/03/02 01:15:03;;;;;;;8.00;5.57;;;15.70;73.30;;;;;;2021525;28;20179;-76
2022/03/02 01:16:02;;;;;;;8.55;6.07;;;15.70;73.50;;;;;;2021474;28;20218;-77
2022/03/02 01:17:01;;;;;;;7.80;4.95;;;15.70;73.90;;;;;;2021389;28;20576;-77
2022/03/02 01:18:00;;;;;;;13.23;5.80;;;15.70;73.60;;;;;;2021338;28;20172;-76
2022/03/02 01:18:58;;;;;;;7.43;5.30;;;15.70;73.40;;;;;;2021278;28;20228;-76
2022/03/02 01:19:57;;;;;;;8.87;6.70;;;15.60;73.40;;;;;;2021250;28;20203;-76
2022/03/02 01:20:56;;;;;;;8.03;5.47;;;15.60;73.30;;;;;;2021341;28;20197;-77
2022/03/02 01:21:54;;;;;;;7.23;5.37;;;15.60;72.70;;;;;;2021460;28;20172;-76
2022/03/02 01:22:53;;;;;;;12.10;5.80;;;15.60;72.80;;;;;;2021264;28;20905;-77
2022/03/02 01:23:56;;;;;;;7.70;5.60;;;15.70;72.90;;;;;;2021241;28;20172;-76
2022/03/02 01:24:55;;;;;;;8.13;5.65;;;15.70;73.10;;;;;;2021373;28;20162;-77
2022/03/02 01:25:55;;;;;;;8.80;6.30;;;15.70;73.10;;;;;;2021332;28;20168;-76
2022/03/02 01:26:53;;;;;;;9.43;5.55;;;15.60;73.20;;;;;;2021216;28;20229;-77
2022/03/02 01:27:52;;;;;;;12.63;6.57;;;15.70;73.20;;;;;;2021229;28;20168;-77
2022/03/02 01:28:53;;;;;;;8.00;5.70;;;15.70;73.30;;;;;;2021272;28;20190;-77
2022/03/02 01:29:52;;;;;;;9.63;6.07;;;15.60;73.10;;;;;;2021252;28;20630;-76
2022/03/02 01:30:51;;;;;;;9.57;6.23;;;15.70;73.20;;;;;;2020606;28;20197;-77
2022/03/02 01:31:49;;;;;;;8.70;5.60;;;15.70;73.40;;;;;;2020717;28;20413;-77
2022/03/02 01:32:48;;;;;;;8.20;6.00;;;15.60;73.40;;;;;;2021061;28;20581;-76
2022/03/02 01:33:47;;;;;;;8.57;6.27;;;15.60;73.20;;;;;;2020494;28;20626;-76
2022/03/02 01:34:46;;;;;;;9.63;5.65;;;15.70;73.30;;;;;;2020654;28;20217;-77
2022/03/02 01:35:45;;;;;;;8.18;5.53;;;15.70;73.30;;;;;;2021219;28;20515;-77
2022/03/02 01:36:43;;;;;;;8.03;5.60;;;15.60;73.40;;;;;;2021216;28;20183;-76
2022/03/02 01:37:42;;;;;;;10.37;5.77;;;15.70;73.50;;;;;;2021276;28;20205;-76
2022/03/02 01:38:40;;;;;;;10.27;5.97;;;15.70;73.80;;;;;;2021196;28;20289;-77
2022/03/02 01:39:39;;;;;;;11.37;6.00;;;15.70;73.70;;;;;;2021132;28;20175;-76
2022/03/02 01:40:38;;;;;;;9.37;5.93;;;15.70;73.80;;;;;;2021327;28;20704;-77
2022/03/02 01:41:37;;;;;;;11.07;6.30;;;15.60;73.60;;;;;;2021130;28;20207;-75
2022/03/02 01:42:41;;;;;;;12.33;5.47;;;15.60;73.60;;;;;;2019203;28;20812;-76
2022/03/02 01:43:39;;;;;;;11.40;5.82;;;15.60;73.90;;;;;;2020083;28;20398;-76
2022/03/02 01:44:38;;;;;;;8.10;5.73;;;15.60;73.90;;;;;;2021114;28;20639;-76
2022/03/02 01:45:37;;;;;;;9.00;5.70;;;15.60;73.80;;;;;;2021050;28;20171;-76
2022/03/02 01:46:35;;;;;;;8.23;5.67;;;15.60;74.40;;;;;;2021121;28;20168;-77
2022/03/02 01:47:34;;;;;;;8.50;5.20;;;15.60;73.80;;;;;;2021131;28;20251;-77
2022/03/02 01:48:33;;;;;;;10.40;6.27;;;15.60;73.70;;;;;;2021112;28;20194;-76
2022/03/02 01:49:32;;;;;;;9.73;6.00;;;15.60;73.10;;;;;;2021105;28;20168;-76
2022/03/02 01:50:32;;;;;;;10.68;6.20;;;15.50;72.60;;;;;;2021122;28;20175;-76
2022/03/02 01:51:30;;;;;;;9.88;5.07;;;15.60;72.60;;;;;;2020525;28;20183;-76
2022/03/02 01:52:30;;;;;;;11.00;6.20;;;15.60;72.50;;;;;;2020524;28;20178;-76
2022/03/02 01:53:29;;;;;;;8.05;5.78;;;15.60;72.10;;;;;;2020176;28;20178;-76
2022/03/02 01:54:27;;;;;;;7.30;5.90;;;15.60;72.10;;;;;;2020556;28;20184;-76
2022/03/02 01:55:26;;;;;;;10.37;5.70;;;15.60;72.10;;;;;;2021092;28;20206;-76
2022/03/02 01:56:25;;;;;;;8.97;5.67;;;15.50;72.00;;;;;;2020961;28;20410;-77
2022/03/02 01:57:23;;;;;;;7.80;5.93;;;15.50;72.10;;;;;;2021015;28;20172;-76
2022/03/02 01:58:23;;;;;;;10.67;6.60;;;15.60;72.20;;;;;;2020999;28;20191;-77
2022/03/02 01:59:22;;;;;;;9.00;5.90;;;15.60;72.40;;;;;;2021056;28;20171;-77
2022/03/02 02:00:22;;;;;;;7.23;5.13;;;15.60;72.40;;;;;;2021060;28;20206;-76
2022/03/02 02:01:21;;;;;;;9.93;5.88;;;15.60;72.40;;;;;;2020355;28;20217;-77
2022/03/02 02:02:20;;;;;;;8.47;6.03;;;15.60;72.10;;;;;;2020570;28;20171;-76
2022/03/02 02:03:19;;;;;;;7.37;5.13;;;15.60;72.30;;;;;;2020994;28;20670;-77
2022/03/02 02:04:18;;;;;;;8.13;5.93;;;15.60;72.20;;;;;;2020998;28;20539;-77
2022/03/02 02:05:17;;;;;;;8.00;5.63;;;15.50;72.00;;;;;;2020941;28;20207;-77
2022/03/02 02:06:16;;;;;;;7.22;5.15;;;15.50;72.20;;;;;;2021021;28;20184;-77
2022/03/02 02:07:15;;;;;;;7.97;5.17;;;15.50;72.20;;;;;;2021116;28;20175;-77
2022/03/02 02:08:13;;;;;;;11.33;5.90;;;15.50;72.20;;;;;;2020987;28;20485;-75
2022/03/02 02:09:12;;;;;;;11.67;6.03;;;15.50;72.20;;;;;;2020898;28;20251;-76
2022/03/02 02:10:11;;;;;;;10.00;5.87;;;15.50;72.80;;;;;;2020955;28;20186;-75
2022/03/02 02:11:12;;;;;;;8.60;5.63;;;15.50;72.30;;;;;;2020205;28;20164;-76
2022/03/02 02:12:10;;;;;;;9.93;6.47;;;15.50;72.20;;;;;;2020466;28;20654;-76
2022/03/02 02:13:09;;;;;;;7.33;4.90;;;15.50;72.10;;;;;;2020828;28;20553;-75
2022/03/02 02:14:08;;;;;;;10.90;6.10;;;15.50;72.20;;;;;;2020909;28;20191;-76
2022/03/02 02:15:09;;;;;;;8.47;6.60;;;15.40;72.20;;;;;;2020967;28;20756;-75
2022/03/02 02:16:08;;;;;;;10.65;5.60;;;15.50;72.40;;;;;;2020959;28;20697;-76
2022/03/02 02:17:07;;;;;;;8.55;5.63;;;15.50;72.20;;;;;;2020993;28;20180;-76
2022/03/02 02:18:06;;;;;;;9.37;6.10;;;15.50;72.30;;;;;;2020900;28;20180;-76
2022/03/02 02:19:04;;;;;;;9.63;5.40;;;15.40;72.10;;;;;;2020892;28;20650;-76
2022/03/02 02:20:06;;;;;;;9.03;5.50;;;15.60;72.40;;;;;;2020650;28;20168;-76
2022/03/02 02:21:06;;;;;;;8.35;6.03;;;15.50;72.40;;;;;;2020823;28;20191;-76
2022/03/02 02:22:04;;;;;;;8.68;5.30;;;15.50;72.20;;;;;;2020837;28;20176;-75
2022/03/02 02:23:04;;;;;;;11.70;7.10;;;15.50;72.30;;;;;;2020839;28;20219;-76
2022/03/02 02:24:03;;;;;;;7.93;5.80;;;15.50;72.30;;;;;;2020745;28;20531;-75
2022/03/02 02:25:01;;;;;;;8.67;5.70;;;15.40;72.50;;;;;;2020824;28;20198;-75
2022/03/02 02:26:00;;;;;;;9.43;6.30;;;15.50;72.30;;;;;;2020813;28;20583;-75
2022/03/02 02:26:59;;;;;;;7.93;5.83;;;15.50;72.30;;;;;;2020869;28;20180;-76
2022/03/02 02:27:59;;;;;;;8.63;5.72;;;15.50;72.40;;;;;;2020844;28;20180;-76
2022/03/02 02:28:59;;;;;;;10.65;6.07;;;15.50;72.40;;;;;;2020756;28;20226;-76
2022/03/02 02:29:58;;;;;;;7.57;5.57;;;15.40;72.40;;;;;;2020878;28;20160;-76
2022/03/02 02:30:58;;;;;;;9.05;5.25;;;15.40;72.50;;;;;;2020753;28;20172;-76
2022/03/02 02:31:57;;;;;;;9.88;5.47;;;15.50;72.50;;;;;;2020572;28;20221;-76
2022/03/02 02:32:57;;;;;;;9.70;5.00;;;15.40;72.30;;;;;;2020661;28;20505;-76
2022/03/02 02:33:55;;;;;;;7.45;5.20;;;15.50;72.30;;;;;;2020779;28;20172;-76
2022/03/02 02:34:54;;;;;;;8.63;6.43;;;15.40;72.40;;;;;;2020756;28;20186;-77
2022/03/02 02:35:53;;;;;;;10.02;5.45;;;15.40;72.50;;;;;;2020748;28;20194;-76
2022/03/02 02:36:52;;;;;;;7.97;5.97;;;15.50;72.70;;;;;;2020769;28;20175;-76
2022/03/02 02:37:52;;;;;;;6.57;5.00;;;15.40;72.70;;;;;;2020705;28;20182;-76
2022/03/02 02:38:51;;;;;;;9.75;5.82;;;15.50;72.70;;;;;;2020900;28;20460;-76
2022/03/02 02:39:58;;;;;;;10.60;6.33;;;15.40;72.70;;;;;;2020162;28;20183;-76
2022/03/02 02:40:57;;;;;;;9.32;5.50;;;15.50;72.90;;;;;;2019994;28;20179;-76
2022/03/02 02:42:05;;;;;;;8.90;5.33;;;15.40;72.80;;;;;;2020042;28;20263;-75
2022/03/02 02:43:05;;;;;;;10.05;5.90;;;15.50;73.80;;;;;;2019909;28;20294;-76
2022/03/02 02:44:04;;;;;;;7.78;5.32;;;15.40;73.10;;;;;;2020462;28;20267;-75
2022/03/02 02:45:04;;;;;;;13.10;6.30;;;15.50;72.90;;;;;;2020662;28;20176;-77
2022/03/02 02:46:03;;;;;;;8.50;6.13;;;15.50;73.50;;;;;;2020703;28;20171;-76
2022/03/02 02:47:02;;;;;;;6.25;5.20;;;15.40;73.10;;;;;;2020818;28;20182;-77
2022/03/02 02:48:04;;;;;;;7.03;5.03;;;15.50;73.50;;;;;;2019878;28;20179;-76
2022/03/02 02:49:03;;;;;;;11.35;6.10;;;15.50;73.50;;;;;;2020056;28;20176;-76
2022/03/02 02:50:17;;;;;;;10.37;5.13;;;15.50;73.60;;;;;;2020715;28;20168;-76
2022/03/02 02:51:15;;;;;;;8.05;5.40;;;15.50;74.50;;;;;;2020768;28;20493;-76
2022/03/02 02:52:14;;;;;;;9.13;5.67;;;15.50;73.80;;;;;;2020621;28;20222;-76
2022/03/02 02:53:14;;;;;;;9.13;5.60;;;15.50;74.40;;;;;;2011904;28;20579;-76
2022/03/02 02:54:12;;;;;;;9.95;5.95;;;15.50;74.70;;;;;;2012120;28;20176;-76
2022/03/02 02:55:13;;;;;;;9.27;6.03;;;15.50;74.80;;;;;;2019900;28;20171;-76
2022/03/02 02:56:12;;;;;;;9.05;5.72;;;15.50;74.20;;;;;;2020736;28;20191;-76
2022/03/02 02:57:11;;;;;;;9.68;5.70;;;15.50;74.10;;;;;;2020040;28;20257;-76
2022/03/02 02:58:10;;;;;;;7.77;5.63;;;15.50;74.00;;;;;;2019966;28;20168;-76
2022/03/02 02:59:08;;;;;;;9.63;5.97;;;15.40;74.00;;;;;;2019452;28;20176;-76
2022/03/02 03:00:12;;;;;;;9.20;6.00;;;15.50;74.00;;;;;;2020018;28;20180;-76
2022/03/02 03:01:10;;;;;;;9.80;5.90;;;15.50;74.10;;;;;;2020562;28;20164;-76
2022/03/02 03:02:09;;;;;;;10.53;5.63;;;15.50;73.90;;;;;;2020511;28;20195;-76
2022/03/02 03:03:07;;;;;;;13.73;6.43;;;15.50;74.00;;;;;;2020466;28;20192;-76
2022/03/02 03:04:06;;;;;;;7.63;5.47;;;15.50;74.20;;;;;;2020525;28;20647;-76
2022/03/02 03:05:09;;;;;;;10.73;5.85;;;15.50;74.40;;;;;;2020592;28;20498;-76
2022/03/02 03:06:08;;;;;;;8.18;5.45;;;15.50;75.20;;;;;;2020557;28;20414;-76
2022/03/02 03:07:06;;;;;;;8.97;5.37;;;15.40;73.70;;;;;;2020476;28;20302;-76
2022/03/02 03:08:12;;;;;;;10.67;6.43;;;15.40;73.80;;;;;;2020560;28;20179;-76
2022/03/02 03:09:10;;;;;;;8.82;5.70;;;15.50;74.00;;;;;;2020533;28;20512;-76
2022/03/02 03:10:10;;;;;;;10.10;5.33;;;15.50;73.90;;;;;;2020625;28;20171;-76
2022/03/02 03:11:09;;;;;;;8.77;5.68;;;15.40;74.00;;;;;;2020565;28;20204;-76
2022/03/02 03:12:09;;;;;;;9.13;6.23;;;15.40;73.90;;;;;;2020515;28;20276;-76
2022/03/02 03:13:08;;;;;;;9.25;5.85;;;15.50;74.20;;;;;;2019725;28;20270;-77
2022/03/02 03:14:08;;;;;;;8.05;5.63;;;15.40;74.20;;;;;;2019884;28;20172;-77
2022/03/02 03:15:09;;;;;;;11.68;6.18;;;15.40;74.10;;;;;;2020465;28;20256;-77
2022/03/02 03:16:07;;;;;;;7.72;5.15;;;15.50;74.50;;;;;;2019815;28;20733;-77
2022/03/02 03:17:06;;;;;;;9.17;6.10;;;15.50;74.40;;;;;;2020120;28;20175;-76
2022/03/02 03:18:06;;;;;;;8.57;5.70;;;15.50;74.40;;;;;;2027669;28;20171;-76
2022/03/02 03:19:06;;;;;;;7.82;5.35;;;15.40;74.50;;;;;;2027872;28;20190;-76
2022/03/02 03:20:07;;;;;;;6.88;5.35;;;15.50;74.70;;;;;;2020686;28;20222;-77
2022/03/02 03:21:06;;;;;;;8.00;5.55;;;15.50;74.60;;;;;;2020494;28;20652;-77
2022/03/02 03:22:06;;;;;;;8.57;5.63;;;15.40;74.40;;;;;;2020467;28;20194;-77
2022/03/02 03:23:06;;;;;;;9.82;6.55;;;15.40;74.50;;;;;;2020380;28;20287;-77
2022/03/02 03:24:05;;;;;;;8.15;5.40;;;15.40;74.20;;;;;;2020359;28;20191;-75
2022/03/02 03:25:07;;;;;;;9.60;5.13;;;15.40;74.10;;;;;;2020413;28;20292;-76
2022/03/02 03:26:05;;;;;;;8.05;5.93;;;15.40;74.20;;;;;;2020440;28;20413;-76
2022/03/02 03:27:04;;;;;;;9.50;5.73;;;15.40;74.20;;;;;;2020535;28;20525;-76
2022/03/02 03:28:04;;;;;;;6.63;4.83;;;15.30;74.30;;;;;;2020461;28;20171;-76
2022/03/02 03:29:02;;;;;;;8.93;5.22;;;15.40;74.90;;;;;;2020430;28;20187;-76
2022/03/02 03:30:02;;;;;;;7.03;5.43;;;15.40;74.80;;;;;;2020393;28;20634;-76
2022/03/02 03:31:00;;;;;;;7.75;5.43;;;15.40;74.80;;;;;;2020539;28;20160;-76
2022/03/02 03:31:59;;;;;;;9.53;5.53;;;15.30;74.50;;;;;;2020386;28;20203;-76
2022/03/02 03:32:58;;;;;;;7.80;5.47;;;15.40;74.70;;;;;;2019659;28;20226;-76
2022/03/02 03:33:57;;;;;;;8.50;5.93;;;15.40;74.80;;;;;;2019850;28;20182;-76
2022/03/02 03:34:56;;;;;;;6.87;4.70;;;15.40;75.00;;;;;;2027554;28;20183;-76
2022/03/02 03:35:55;;;;;;;10.70;5.03;;;15.40;75.30;;;;;;2020969;28;20623;-76
2022/03/02 03:36:53;;;;;;;9.17;4.97;;;15.30;75.00;;;;;;2020427;28;20247;-76
2022/03/02 03:37:53;;;;;;;8.67;5.27;;;15.40;75.20;;;;;;2020442;28;20168;-76
2022/03/02 03:38:52;;;;;;;7.95;4.93;;;15.40;75.50;;;;;;2020522;28;20172;-76
2022/03/02 03:39:50;;;;;;;7.07;5.50;;;15.40;75.60;;;;;;2020350;28;20179;-76
2022/03/02 03:40:49;;;;;;;11.83;5.20;;;15.30;75.00;;;;;;2020405;28;20175;-76
2022/03/02 03:41:48;;;;;;;9.57;5.17;;;15.40;75.10;;;;;;2020292;28;20231;-76
2022/03/02 03:42:47;;;;;;;8.33;5.60;;;15.40;75.30;;;;;;2020145;28;20203;-76
2022/03/02 03:43:47;;;;;;;7.00;4.93;;;15.30;75.30;;;;;;2020505;28;20266;-76
2022/03/02 03:44:45;;;;;;;10.25;5.85;;;15.30;74.80;;;;;;2020464;28;20184;-76
2022/03/02 03:45:44;;;;;;;9.40;4.87;;;15.30;74.80;;;;;;2020485;28;20182;-76
2022/03/02 03:46:42;;;;;;;8.97;5.53;;;15.40;74.80;;;;;;2020247;28;20187;-76
2022/03/02 03:47:42;;;;;;;8.20;5.37;;;15.30;74.90;;;;;;2019407;28;20183;-77
2022/03/02 03:48:42;;;;;;;7.22;5.40;;;15.30;75.90;;;;;;2011779;28;20180;-77
2022/03/02 03:49:40;;;;;;;7.18;5.07;;;15.40;75.10;;;;;;2019715;28;20183;-76
2022/03/02 03:50:39;;;;;;;9.30;5.37;;;15.30;75.00;;;;;;2020306;28;20603;-76
2022/03/02 03:51:38;;;;;;;7.00;5.10;;;15.40;74.90;;;;;;2020491;28;20473;-76
2022/03/02 03:52:37;;;;;;;9.40;6.00;;;15.30;74.80;;;;;;2020305;28;20414;-77
2022/03/02 03:53:35;;;;;;;7.90;5.50;;;15.30;75.00;;;;;;2020425;28;20218;-77
2022/03/02 03:54:34;;;;;;;7.40;5.03;;;15.30;74.80;;;;;;2020474;28;20489;-76
2022/03/02 03:55:33;;;;;;;7.83;5.40;;;15.30;75.00;;;;;;2020240;28;20623;-76
2022/03/02 03:56:31;;;;;;;8.90;4.70;;;15.30;74.80;;;;;;2020378;28;20183;-76
2022/03/02 03:57:30;;;;;;;6.80;5.50;;;15.30;74.80;;;;;;2020344;28;20640;-76
2022/03/02 03:58:29;;;;;;;6.70;4.63;;;15.30;74.60;;;;;;2020357;28;20402;-76
2022/03/02 03:59:27;;;;;;;8.70;5.30;;;15.30;74.40;;;;;;2020292;28;20658;-76
2022/03/02 04:00:26;;;;;;;7.90;5.23;;;15.30;74.30;;;;;;2020266;28;20171;-76
2022/03/02 04:01:25;;;;;;;6.80;4.70;;;15.30;74.40;;;;;;2020204;28;20199;-77
2022/03/02 04:02:24;;;;;;;11.82;6.22;;;15.30;74.60;;;;;;2020140;28;20176;-76
2022/03/02 04:03:22;;;;;;;6.63;4.90;;;15.30;74.40;;;;;;2019609;28;20176;-76
2022/03/02 04:04:21;;;;;;;8.07;5.33;;;15.30;74.40;;;;;;2019671;28;20600;-76
2022/03/02 04:05:19;;;;;;;9.87;6.03;;;15.30;74.50;;;;;;2020412;28;20175;-76
2022/03/02 04:06:18;;;;;;;9.30;6.40;;;15.20;74.40;;;;;;2020689;28;20164;-76
2022/03/02 04:07:17;;;;;;;9.37;5.80;;;15.20;74.40;;;;;;2021884;28;20175;-75
2022/03/02 04:08:15;;;;;;;8.90;5.40;;;15.20;74.30;;;;;;2021356;28;20481;-76
2022/03/02 04:09:14;;;;;;;7.20;5.43;;;15.20;74.20;;;;;;2021480;28;20171;-76
2022/03/02 04:10:14;;;;;;;7.07;4.80;;;15.20;74.20;;;;;;2021941;28;20168;-76
2022/03/02 04:11:12;;;;;;;7.10;5.25;;;15.20;74.50;;;;;;2021971;28;20179;-76
2022/03/02 04:12:11;;;;;;;7.10;4.67;;;15.20;74.10;;;;;;2021852;28;20599;-76
2022/03/02 04:13:09;;;;;;;8.90;5.03;;;15.30;74.00;;;;;;2021795;28;20191;-76
2022/03/02 04:14:08;;;;;;;9.40;5.50;;;15.20;74.10;;;;;;2021834;28;20168;-76
2022/03/02 04:15:07;;;;;;;7.60;5.83;;;15.20;73.90;;;;;;2021926;28;20679;-75
2022/03/02 04:16:06;;;;;;;7.95;5.47;;;15.30;74.50;;;;;;2021939;28;20199;-76
2022/03/02 04:17:05;;;;;;;6.28;5.22;;;15.20;74.20;;;;;;2021851;28;20257;-76
2022/03/02 04:18:06;;;;;;;9.50;6.20;;;15.20;74.10;;;;;;2021916;28;20179;-76
2022/03/02 04:19:05;;;;;;;8.82;5.95;;;15.30;74.30;;;;;;2022035;28;20566;-76
2022/03/02 04:20:05;;;;;;;14.83;5.53;;;15.20;74.00;;;;;;2021735;28;20178;-77
2022/03/02 04:21:04;;;;;;;10.35;6.15;;;15.30;74.80;;;;;;2021158;28;20188;-77
2022/03/02 04:22:04;;;;;;;7.97;5.10;;;15.20;74.40;;;;;;2021215;28;20661;-77
2022/03/02 04:23:04;;;;;;;7.90;5.38;;;15.30;74.80;;;;;;2021682;28;20421;-77
2022/03/02 04:24:03;;;;;;;7.45;5.70;;;15.20;74.50;;;;;;2021980;28;20175;-77
2022/03/02 04:25:01;;;;;;;7.60;5.22;;;15.30;74.50;;;;;;2021727;28;20675;-77
2022/03/02 04:26:00;;;;;;;8.03;5.20;;;15.30;74.20;;;;;;2021108;28;20185;-76
2022/03/02 04:26:58;;;;;;;7.10;4.93;;;15.20;74.10;;;;;;2021110;28;20183;-77
2022/03/02 04:27:57;;;;;;;8.57;5.50;;;15.30;74.30;;;;;;2021638;28;20607;-77
2022/03/02 04:28:56;;;;;;;9.00;5.67;;;15.20;74.20;;;;;;2021703;28;20176;-77
2022/03/02 04:29:54;;;;;;;7.47;5.30;;;15.20;74.10;;;;;;2021696;28;20210;-77
2022/03/02 04:30:53;;;;;;;10.00;5.30;;;15.20;74.40;;;;;;2021823;28;20175;-77
2022/03/02 04:31:51;;;;;;;7.50;5.07;;;15.20;74.40;;;;;;2021454;28;20266;-77
2022/03/02 04:32:50;;;;;;;7.17;5.33;;;15.20;74.30;;;;;;2021439;28;20207;-77
2022/03/02 04:33:49;;;;;;;6.97;5.07;;;15.20;74.40;;;;;;2021664;28;20187;-77
2022/03/02 04:34:47;;;;;;;7.57;5.05;;;15.20;74.70;;;;;;2021654;28;20647;-76
2022/03/02 04:35:46;;;;;;;7.37;5.07;;;15.20;74.40;;;;;;2021613;28;20548;-77
2022/03/02 04:36:44;;;;;;;8.80;4.73;;;15.10;74.20;;;;;;2021605;28;20171;-77
2022/03/02 04:37:43;;;;;;;7.30;5.13;;;15.20;74.50;;;;;;2021718;28;20186;-77
2022/03/02 04:38:42;;;;;;;7.63;5.40;;;15.20;74.70;;;;;;2021739;28;20176;-76
2022/03/02 04:39:40;;;;;;;7.97;5.63;;;15.20;74.50;;;;;;2021634;28;20695;-76
2022/03/02 04:40:39;;;;;;;7.57;5.30;;;15.20;74.80;;;;;;2021636;28;20180;-77
2022/03/02 04:41:38;;;;;;;8.32;5.28;;;15.20;74.80;;;;;;2021644;28;20535;-75
2022/03/02 04:42:37;;;;;;;8.20;5.23;;;15.20;74.90;;;;;;2021356;28;20191;-75
2022/03/02 04:43:36;;;;;;;8.45;5.85;;;15.10;75.10;;;;;;2021545;28;20171;-75
2022/03/02 04:44:34;;;;;;;10.07;5.70;;;15.20;75.10;;;;;;2020856;28;20182;-75
2022/03/02 04:45:34;;;;;;;7.20;5.47;;;15.20;75.00;;;;;;2020975;28;20203;-77
2022/03/02 04:46:32;;;;;;;7.68;5.57;;;15.10;75.10;;;;;;2021492;28;20221;-77
2022/03/02 04:47:31;;;;;;;7.90;5.63;;;15.10;75.40;;;;;;2021626;28;20176;-76
2022/03/02 04:48:30;;;;;;;7.30;5.10;;;15.10;75.50;;;;;;2021710;28;20196;-76
2022/03/02 04:49:28;;;;;;;7.73;5.13;;;15.10;75.70;;;;;;2020934;28;20497;-76
2022/03/02 04:50:27;;;;;;;8.90;5.10;;;15.10;75.70;;;;;;2021033;28;20170;-76
2022/03/02 04:51:26;;;;;;;6.40;5.00;;;15.10;76.10;;;;;;2021555;28;20465;-76
2022/03/02 04:52:25;;;;;;;8.20;5.20;;;15.10;76.00;;;;;;2021594;28;20434;-76
2022/03/02 04:53:24;;;;;;;9.70;5.35;;;15.10;76.50;;;;;;2021686;28;20222;-76
2022/03/02 04:55:42;;;;;;;10.02;5.75;;;15.10;76.20;;;;;;2021632;28;20160;-77
2022/03/02 04:56:42;;;;;;;7.25;4.78;;;15.20;76.60;;;;;;2021014;28;20206;-76
2022/03/02 04:57:42;;;;;;;6.70;4.90;;;15.10;76.20;;;;;;2021384;28;20168;-76
2022/03/02 04:58:40;;;;;;;7.88;5.00;;;15.20;75.90;;;;;;2022136;28;20262;-76
2022/03/02 04:59:39;;;;;;;10.33;5.70;;;15.20;75.80;;;;;;2022245;28;20626;-76
2022/03/02 05:00:38;;;;;;;14.77;5.23;;;15.10;75.40;;;;;;2022382;28;20199;-76
2022/03/02 05:01:36;;;;;;;8.10;5.60;;;15.10;75.20;;;;;;2022789;28;20271;-76
2022/03/02 05:02:35;;;;;;;10.10;5.70;;;15.10;75.30;;;;;;2024254;28;20176;-76
2022/03/02 05:03:34;;;;;;;9.23;5.07;;;15.10;75.40;;;;;;2027981;28;20176;-76
2022/03/02 05:04:32;;;;;;;10.37;5.53;;;15.10;75.30;;;;;;2027452;28;20406;-76
2022/03/02 05:05:34;;;;;;;7.17;5.67;;;15.10;75.40;;;;;;2027033;28;20237;-77
2022/03/02 05:06:32;;;;;;;6.47;5.47;;;15.10;75.70;;;;;;2027143;28;20225;-78
2022/03/02 05:07:31;;;;;;;8.73;5.87;;;15.10;75.40;;;;;;2025238;28;20180;-76
2022/03/02 05:08:30;;;;;;;7.27;4.87;;;15.10;75.70;;;;;;2021083;28;20172;-76